createdAt,value
2023-08-11T00:01:39.037Z,40.56
2023-08-11T00:06:44.399Z,40.75
2023-08-11T00:11:51.324Z,40.73
2023-08-11T00:16:55.148Z,40.92
2023-08-11T00:22:00.420Z,41.01
2023-08-11T00:27:04.396Z,41.07
2023-08-11T00:32:08.470Z,41.10
2023-08-11T00:37:14.141Z,40.97
2023-08-11T00:42:17.710Z,40.87
2023-08-11T00:47:21.646Z,42.77
2023-08-11T00:52:26.659Z,41.30
2023-08-11T00:57:31.466Z,42.05
2023-08-11T01:02:35.144Z,41.98
2023-08-11T01:07:45.838Z,41.46
2023-08-11T01:12:56.103Z,40.88
2023-08-11T01:17:59.971Z,40.81
2023-08-11T01:23:07.547Z,41.03
2023-08-11T01:28:12.540Z,41.39
2023-08-11T01:33:16.496Z,41.35
2023-08-11T01:38:20.440Z,40.91
2023-08-11T01:43:26.250Z,41.52
2023-08-11T01:48:30.380Z,41.59
2023-08-11T01:53:34.436Z,41.55
2023-08-11T01:58:40.418Z,41.80
2023-08-11T02:03:45.303Z,41.67
2023-08-11T02:08:49.181Z,42.02
2023-08-11T02:13:54.372Z,42.24
2023-08-11T02:18:58.521Z,42.63
2023-08-11T02:24:02.201Z,42.20
2023-08-11T02:29:07.259Z,42.23
2023-08-11T02:34:11.142Z,42.16
2023-08-11T02:39:14.905Z,41.73
2023-08-11T02:44:19.837Z,42.12
2023-08-11T02:49:23.868Z,41.96
2023-08-11T02:54:27.594Z,42.54
2023-08-11T02:59:32.703Z,42.36
2023-08-11T03:04:37.565Z,42.33
2023-08-11T03:09:41.607Z,41.96
2023-08-11T03:14:46.822Z,42.41
2023-08-11T03:19:50.605Z,42.40
2023-08-11T03:24:54.434Z,42.65
2023-08-11T03:29:59.690Z,42.87
2023-08-11T03:35:05.265Z,42.00
2023-08-11T03:40:14.096Z,42.30
2023-08-11T03:45:23.988Z,42.38
2023-08-11T03:50:28.455Z,42.36
2023-08-11T03:55:32.374Z,42.47
2023-08-11T04:00:38.945Z,42.63
2023-08-11T04:05:49.079Z,42.15
2023-08-11T04:10:52.935Z,42.17
2023-08-11T04:15:57.927Z,42.85
2023-08-11T04:21:01.718Z,42.69
2023-08-11T04:26:06.730Z,43.68
2023-08-11T04:31:12.391Z,42.77
2023-08-11T04:36:18.201Z,42.91
2023-08-11T04:41:22.663Z,43.04
2023-08-11T04:46:27.853Z,43.17
2023-08-11T04:51:33.250Z,43.43
2023-08-11T04:56:36.918Z,43.26
2023-08-11T05:01:42.814Z,44.29
2023-08-11T05:06:46.450Z,44.19
2023-08-11T05:11:50.084Z,44.96
2023-08-11T05:16:55.222Z,44.07
2023-08-11T05:21:59.006Z,43.82
2023-08-11T05:27:02.632Z,43.73
2023-08-11T05:32:08.144Z,43.56
2023-08-11T05:37:12.218Z,43.91
2023-08-11T05:42:16.607Z,43.08
2023-08-11T05:47:22.494Z,43.29
2023-08-11T05:52:26.149Z,43.30
2023-08-11T05:57:30.047Z,42.79
2023-08-11T06:02:35.022Z,43.60
2023-08-11T06:07:55.772Z,43.23
2023-08-11T06:13:01.587Z,43.36
2023-08-11T06:18:10.369Z,43.36
2023-08-11T06:23:14.401Z,42.73
2023-08-11T06:28:20.880Z,43.22
2023-08-11T06:33:27.410Z,42.67
2023-08-11T06:38:31.939Z,42.49
2023-08-11T06:43:38.013Z,42.02
2023-08-11T06:48:44.660Z,42.26
2023-08-11T06:53:48.821Z,41.36
2023-08-11T06:58:53.942Z,40.82
2023-08-11T07:04:01.938Z,40.90
2023-08-11T07:09:06.873Z,40.63
2023-08-11T07:14:11.327Z,39.92
2023-08-11T07:19:20.821Z,39.64
2023-08-11T07:24:24.658Z,39.10
2023-08-11T07:29:36.289Z,39.16
2023-08-11T07:34:43.166Z,38.87
2023-08-11T07:40:02.596Z,38.69
2023-08-11T07:45:07.723Z,37.67
2023-08-11T07:50:12.850Z,37.91
2023-08-11T07:55:16.693Z,38.29
2023-08-11T08:00:30.811Z,37.03
2023-08-11T08:05:40.402Z,36.40
2023-08-11T08:10:44.631Z,36.05
2023-08-11T08:27:40.664Z,35.41
2023-08-11T08:32:44.867Z,35.72
2023-08-11T08:37:48.717Z,34.85
2023-08-11T08:42:54.999Z,33.82
2023-08-11T08:47:59.520Z,34.28
2023-08-11T08:53:05.382Z,34.62
2023-08-11T08:58:18.029Z,32.98
2023-08-11T09:03:22.029Z,32.59
2023-08-11T09:08:26.032Z,33.25
2023-08-11T09:13:33.425Z,32.83
2023-08-11T09:18:38.701Z,31.99
2023-08-11T09:23:45.431Z,31.79
2023-08-11T09:28:52.067Z,31.40
2023-08-11T09:33:55.832Z,32.31
2023-08-11T09:39:09.019Z,31.61
2023-08-11T09:44:17.944Z,31.66
2023-08-11T09:49:21.755Z,30.00
2023-08-11T09:54:26.481Z,30.65
2023-08-11T09:59:31.637Z,29.94
2023-08-11T10:04:40.191Z,30.68
2023-08-11T10:09:46.336Z,30.52
2023-08-11T10:14:53.403Z,30.36
2023-08-11T10:20:08.669Z,30.09
2023-08-11T10:25:13.244Z,29.10
2023-08-11T10:30:19.570Z,28.89
2023-08-11T10:35:28.881Z,28.85
2023-08-11T10:40:38.736Z,28.26
2023-08-11T10:45:44.925Z,28.76
2023-08-11T10:50:49.114Z,28.07
2023-08-11T10:56:01.352Z,28.07
2023-08-11T11:01:07.144Z,27.77
2023-08-11T11:06:11.282Z,27.61
2023-08-11T11:11:15.302Z,26.97
2023-08-11T11:16:20.648Z,27.33
2023-08-11T11:21:28.245Z,27.46
2023-08-11T11:26:34.464Z,26.93
2023-08-11T11:31:41.299Z,28.27
2023-08-11T11:36:45.422Z,27.57
2023-08-11T11:41:49.631Z,27.93
2023-08-11T11:46:55.090Z,26.36
2023-08-11T11:51:59.612Z,25.93
2023-08-11T11:57:08.277Z,24.80
2023-08-11T12:02:15.422Z,25.85
2023-08-11T12:07:35.149Z,25.87
2023-08-11T12:12:39.481Z,26.03
2023-08-11T12:17:50.298Z,25.04
2023-08-11T12:22:54.093Z,24.74
2023-08-11T12:27:58.144Z,25.00
2023-08-11T12:33:03.970Z,25.80
2023-08-11T12:38:10.874Z,25.29
2023-08-11T12:43:15.581Z,25.71
2023-08-11T12:48:20.920Z,24.99
2023-08-11T12:53:25.520Z,24.48
2023-08-11T12:58:30.080Z,25.11
2023-08-11T13:03:35.645Z,24.34
2023-08-11T13:08:39.980Z,23.92
2023-08-11T13:13:52.414Z,22.89
2023-08-11T13:18:57.555Z,25.70
2023-08-11T13:24:01.830Z,24.57
2023-08-11T13:29:06.401Z,24.48
2023-08-11T13:34:11.641Z,23.01
2023-08-11T13:39:15.769Z,23.95
2023-08-11T13:44:21.633Z,22.37
2023-08-11T13:49:26.941Z,23.72
2023-08-11T13:54:31.128Z,22.86
2023-08-11T13:59:34.997Z,22.92
2023-08-11T14:04:40.717Z,24.26
2023-08-11T14:09:44.694Z,23.73
2023-08-11T14:14:48.561Z,23.28
2023-08-11T14:19:53.671Z,23.98
2023-08-11T14:25:02.380Z,23.27
2023-08-11T14:30:07.366Z,23.28
2023-08-11T14:35:12.654Z,22.55
2023-08-11T14:40:17.113Z,22.70
2023-08-11T14:45:21.049Z,24.10
2023-08-11T14:50:26.171Z,23.32
2023-08-11T14:55:30.774Z,22.46
2023-08-11T15:00:34.789Z,22.94
2023-08-11T15:05:40.198Z,21.97
2023-08-11T15:10:44.799Z,22.77
2023-08-11T15:15:49.123Z,22.78
2023-08-11T15:20:55.749Z,23.15
2023-08-11T15:25:59.737Z,23.44
2023-08-11T15:31:04.937Z,22.88
2023-08-11T15:36:12.961Z,22.63
2023-08-11T15:41:16.744Z,22.71
2023-08-11T15:46:20.551Z,22.85
2023-08-11T15:51:26.274Z,23.53
2023-08-11T15:56:30.448Z,23.02
2023-08-11T16:01:34.373Z,24.49
2023-08-11T16:06:39.728Z,23.46
2023-08-11T16:11:45.721Z,24.09
2023-08-11T16:16:49.839Z,24.16
2023-08-11T16:21:55.130Z,23.75
2023-08-11T16:26:58.921Z,24.06
2023-08-11T16:32:03.016Z,24.78
2023-08-11T16:37:09.040Z,23.49
2023-08-11T16:42:13.161Z,23.87
2023-08-11T16:47:17.092Z,24.35
2023-08-11T16:52:22.893Z,25.05
2023-08-11T16:57:26.794Z,25.03
2023-08-11T17:02:30.652Z,25.28
2023-08-11T17:07:36.156Z,25.85
2023-08-11T17:12:40.022Z,26.19
2023-08-11T17:17:43.792Z,25.85
2023-08-11T17:22:50.173Z,26.09
2023-08-11T17:27:54.038Z,26.36
2023-08-11T17:32:58.730Z,26.44
2023-08-11T17:38:05.283Z,27.09
2023-08-11T17:43:10.461Z,28.27
2023-08-11T17:48:15.154Z,27.41
2023-08-11T17:53:20.827Z,28.17
2023-08-11T17:58:24.827Z,28.37
2023-08-11T18:03:28.812Z,28.73
2023-08-11T18:08:34.289Z,29.32
2023-08-11T18:13:40.606Z,29.39
2023-08-11T18:18:45.814Z,29.59
2023-08-11T18:23:51.233Z,31.42
2023-08-11T18:28:55.123Z,32.17
2023-08-11T18:34:01.170Z,32.98
2023-08-11T18:39:07.327Z,34.53
2023-08-11T18:44:11.492Z,34.25
2023-08-11T18:49:15.464Z,34.67
2023-08-11T18:54:20.743Z,34.81
2023-08-11T18:59:24.677Z,34.61
2023-08-11T19:04:28.530Z,35.67
2023-08-11T19:09:33.813Z,37.07
2023-08-11T19:14:37.673Z,38.11
2023-08-11T19:19:41.849Z,38.99
2023-08-11T19:24:47.204Z,39.15
2023-08-11T19:29:51.069Z,38.50
2023-08-11T19:34:56.623Z,39.68
2023-08-11T19:40:01.963Z,39.45
2023-08-11T19:45:06.947Z,39.99
2023-08-11T19:50:11.062Z,40.29
2023-08-11T19:55:16.519Z,39.93
2023-08-11T20:00:21.086Z,40.20
2023-08-11T20:05:25.258Z,40.67
2023-08-11T20:10:30.504Z,41.03
2023-08-11T20:15:34.612Z,41.43
2023-08-11T20:20:38.705Z,41.26
2023-08-11T20:25:43.928Z,42.13
2023-08-11T20:30:47.825Z,42.38
2023-08-11T20:35:51.531Z,42.78
2023-08-11T20:41:00.154Z,42.85
2023-08-11T20:46:04.609Z,44.36
2023-08-11T20:51:13.012Z,43.85
2023-08-11T21:01:25.008Z,44.93
2023-08-11T21:06:31.544Z,45.34
2023-08-11T21:11:36.864Z,45.20
2023-08-11T21:16:41.538Z,44.19
2023-08-11T21:21:46.288Z,44.53
2023-08-11T21:26:51.458Z,44.70
2023-08-11T21:31:56.401Z,44.59
2023-08-11T21:37:01.926Z,43.77
2023-08-11T21:42:09.448Z,43.28
2023-08-11T21:47:13.715Z,43.73
2023-08-11T21:52:18.273Z,44.17
2023-08-11T21:57:23.632Z,45.03
2023-08-11T22:02:27.590Z,45.82
2023-08-11T22:07:31.603Z,46.30
2023-08-11T22:12:36.888Z,45.84
2023-08-11T22:17:41.182Z,45.85
2023-08-11T22:22:45.030Z,46.03
2023-08-11T22:27:50.229Z,46.67
2023-08-11T22:32:54.095Z,45.70
2023-08-11T22:37:57.975Z,45.77
2023-08-11T22:43:03.301Z,45.20
2023-08-11T22:48:08.104Z,45.56
2023-08-11T22:53:11.865Z,45.52
2023-08-11T22:58:17.100Z,45.06
2023-08-11T23:03:20.905Z,44.54
2023-08-11T23:08:24.721Z,44.19
2023-08-11T23:13:29.952Z,44.24
2023-08-11T23:18:33.671Z,43.85
2023-08-11T23:23:37.239Z,43.94
2023-08-11T23:28:42.617Z,43.32
2023-08-11T23:33:46.436Z,44.11
2023-08-11T23:38:50.597Z,43.73
2023-08-11T23:43:55.898Z,43.45
2023-08-11T23:48:59.634Z,43.56
2023-08-11T23:54:03.303Z,44.56
2023-08-11T23:59:08.497Z,43.72
